Time;durP1;ratioP1;P1;durP2;ratioP2;P2;SDS_P1;SDS_P2;PMS_P1;PMS_P2;Temp;Humidity;BMP_temperature;BMP_pressure;BME280_temperature;BME280_humidity;BME280_pressure;Samples;Min_cycle;Max_cycle;Signal;HPM_P1;HPM_P2
2021/10/30 00:00:15;;;;;;;5.25;2.00;;;;;;;12.69;92.62;100157.56;5070345;28;20538;-65
2021/10/30 00:02:42;;;;;;;3.63;2.17;;;;;;;12.75;92.42;100155.28;5074136;28;20035;-66
2021/10/30 00:05:10;;;;;;;4.25;2.13;;;;;;;12.81;91.76;100162.63;5065103;28;20035;-65
2021/10/30 00:07:36;;;;;;;4.07;1.92;;;;;;;12.82;91.75;100157.97;5069714;28;20669;-64
2021/10/30 00:10:03;;;;;;;2.97;1.92;;;;;;;12.70;92.75;100159.09;5068107;28;20048;-66
2021/10/30 00:12:30;;;;;;;4.85;2.05;;;;;;;12.75;92.35;100157.97;5071258;28;20051;-66
2021/10/30 00:14:55;;;;;;;4.10;1.83;;;;;;;12.86;91.55;100161.47;5058167;28;20044;-65
2021/10/30 00:17:21;;;;;;;5.18;1.88;;;;;;;12.81;92.29;100167.25;5070097;28;20082;-66
2021/10/30 00:19:46;;;;;;;4.18;2.17;;;;;;;12.89;91.55;100169.59;5071267;28;20075;-65
2021/10/30 00:22:11;;;;;;;3.00;1.90;;;;;;;12.84;91.49;100169.97;5071601;28;20042;-66
2021/10/30 00:24:37;;;;;;;3.80;1.63;;;;;;;12.83;91.77;100152.22;5067383;28;20070;-66
2021/10/30 00:27:04;;;;;;;2.83;1.90;;;;;;;12.81;92.18;100154.53;5070846;28;20032;-66
2021/10/30 00:29:30;;;;;;;5.13;2.15;;;;;;;12.83;91.42;100149.53;5080664;28;20163;-66
2021/10/30 00:31:56;;;;;;;4.13;2.10;;;;;;;12.78;91.71;100163.38;5082461;28;20051;-66
2021/10/30 00:34:23;;;;;;;4.20;1.75;;;;;;;12.73;92.12;100163.75;5081947;28;20570;-66
2021/10/30 00:36:51;;;;;;;3.25;1.90;;;;;;;12.74;92.35;100167.25;5070939;28;20089;-65
2021/10/30 00:39:17;;;;;;;3.22;1.83;;;;;;;12.69;92.16;100158.34;5071529;28;20554;-66
2021/10/30 00:41:50;;;;;;;3.03;1.63;;;;;;;12.73;91.76;100165.69;5083714;28;20036;-65
2021/10/30 00:44:17;;;;;;;4.72;2.13;;;;;;;12.62;92.09;100165.63;5083456;28;20509;-64
2021/10/30 00:46:45;;;;;;;2.88;1.52;;;;;;;12.64;92.38;100168.72;5069929;28;20036;-65
2021/10/30 00:49:12;;;;;;;3.72;1.85;;;;;;;12.61;92.63;100167.56;5073012;28;20036;-65
2021/10/30 00:51:40;;;;;;;4.10;1.83;;;;;;;12.62;92.63;100171.81;5070044;28;20030;-65
2021/10/30 00:54:07;;;;;;;3.25;1.85;;;;;;;12.59;92.52;100171.81;5069794;28;20466;-66
2021/10/30 00:56:33;;;;;;;4.60;2.30;;;;;;;12.54;92.70;100167.53;5065780;28;20077;-65
2021/10/30 00:59:03;;;;;;;3.05;2.00;;;;;;;12.51;93.17;100178.31;5065718;28;20036;-65
2021/10/30 01:01:29;;;;;;;2.97;1.70;;;;;;;12.51;92.84;100171.00;5054627;28;20093;-65
2021/10/30 01:03:54;;;;;;;3.88;2.03;;;;;;;12.54;92.54;100174.88;5064142;28;20119;-64
2021/10/30 01:06:20;;;;;;;4.95;2.25;;;;;;;12.57;92.75;100166.78;5069491;28;20402;-64
2021/10/30 01:08:46;;;;;;;2.28;1.50;;;;;;;12.48;93.36;100160.97;5079963;28;20037;-65
2021/10/30 01:11:15;;;;;;;3.53;2.20;;;;;;;12.50;93.45;100174.09;5061133;28;20438;-64
2021/10/30 01:13:42;;;;;;;4.22;1.85;;;;;;;12.55;93.26;100168.31;5078612;28;20047;-64
2021/10/30 01:16:07;;;;;;;2.33;1.38;;;;;;;12.57;92.73;100168.72;5063513;28;20036;-64
2021/10/30 01:18:33;;;;;;;4.63;1.73;;;;;;;12.60;92.87;100176.06;5078713;28;20025;-65
2021/10/30 01:20:59;;;;;;;3.92;1.88;;;;;;;12.60;92.82;100178.78;5068342;28;20060;-66
2021/10/30 01:23:24;;;;;;;4.55;1.85;;;;;;;12.58;92.77;100179.13;5068663;28;20040;-65
2021/10/30 01:25:57;;;;;;;2.80;1.55;;;;;;;12.56;93.22;100186.84;5068339;28;20040;-65
2021/10/30 01:28:22;;;;;;;2.25;1.40;;;;;;;12.59;92.56;100185.31;5064494;28;20038;-65
2021/10/30 01:30:48;;;;;;;4.45;1.88;;;;;;;12.60;92.50;100181.47;5074468;28;20032;-65
2021/10/30 01:33:13;;;;;;;3.83;1.90;;;;;;;12.57;92.84;100191.09;5077568;28;20036;-65
2021/10/30 01:35:43;;;;;;;5.32;2.05;;;;;;;12.54;92.84;100189.13;5062192;28;20075;-65
2021/10/30 01:38:10;;;;;;;2.10;1.60;;;;;;;12.58;92.59;100192.63;5070800;28;20032;-65
2021/10/30 01:40:44;;;;;;;5.40;1.90;;;;;;;12.56;92.59;100186.84;5074171;28;20016;-66
2021/10/30 01:43:11;;;;;;;4.65;1.83;;;;;;;12.60;92.15;100187.63;5070487;28;20045;-66
2021/10/30 01:45:37;;;;;;;2.38;1.80;;;;;;;12.54;92.59;100183.75;5074544;28;20039;-66
2021/10/30 01:48:03;;;;;;;4.72;1.75;;;;;;;12.50;92.57;100180.25;5071508;28;20028;-65
2021/10/30 01:50:29;;;;;;;4.07;1.10;;;;;;;12.56;92.25;100188.78;5075312;28;20107;-65
2021/10/30 01:52:59;;;;;;;6.00;1.75;;;;;;;12.52;92.37;100177.94;5062929;28;20052;-65
2021/10/30 01:55:25;;;;;;;3.92;2.08;;;;;;;12.50;92.35;100176.78;5052798;28;20028;-65
2021/10/30 01:57:51;;;;;;;2.90;1.73;;;;;;;12.50;92.37;100182.94;5070558;28;20040;-65
2021/10/30 02:00:17;;;;;;;3.50;1.65;;;;;;;12.49;92.15;100165.19;5073510;28;20050;-67
2021/10/30 02:02:42;;;;;;;4.05;1.75;;;;;;;12.45;92.46;100169.81;5067038;28;20044;-66
2021/10/30 02:05:09;;;;;;;4.63;1.73;;;;;;;12.42;92.92;100180.59;5064854;28;20036;-66
2021/10/30 02:07:35;;;;;;;3.83;1.85;;;;;;;12.42;93.02;100165.19;5068206;28;20087;-65
2021/10/30 02:10:01;;;;;;;4.55;1.75;;;;;;;12.43;92.57;100165.94;5077374;28;20032;-67
2021/10/30 02:12:26;;;;;;;2.22;1.60;;;;;;;12.39;92.69;100165.16;5076683;28;20033;-66
2021/10/30 02:14:52;;;;;;;2.17;1.50;;;;;;;12.36;92.75;100160.50;5079162;28;20028;-66
2021/10/30 02:17:17;;;;;;;3.47;1.88;;;;;;;12.36;92.48;100166.69;5080674;28;20031;-65
2021/10/30 02:19:43;;;;;;;3.08;1.70;;;;;;;12.34;92.89;100166.28;5074016;28;20094;-66
2021/10/30 02:22:09;;;;;;;3.03;1.65;;;;;;;12.32;93.03;100154.31;5067112;28;20029;-66
2021/10/30 02:24:34;;;;;;;4.07;1.50;;;;;;;12.23;93.31;100162.75;5080222;28;20522;-66
2021/10/30 02:27:00;;;;;;;4.13;2.20;;;;;;;12.23;93.32;100151.94;5079470;28;20031;-66
2021/10/30 02:29:25;;;;;;;4.15;2.17;;;;;;;12.26;92.65;100155.81;5089805;28;20028;-66
2021/10/30 02:31:51;;;;;;;3.15;1.77;;;;;;;12.20;93.72;100160.81;5077685;28;20242;-66
2021/10/30 02:34:16;;;;;;;4.90;2.10;;;;;;;12.21;93.38;100156.97;5077757;28;20039;-65
2021/10/30 02:36:42;;;;;;;2.95;1.60;;;;;;;12.14;94.07;100158.84;5080311;28;20098;-66
2021/10/30 02:39:10;;;;;;;3.42;1.83;;;;;;;12.06;93.85;100163.41;5081957;28;20024;-66
2021/10/30 02:41:36;;;;;;;2.17;1.50;;;;;;;12.10;94.39;100161.53;5078428;28;20028;-66
2021/10/30 02:44:02;;;;;;;4.50;1.90;;;;;;;12.11;93.68;100165.78;5068493;28;20585;-66
2021/10/30 02:46:28;;;;;;;2.25;1.60;;;;;;;12.07;94.15;100159.59;5089068;28;20048;-66
2021/10/30 02:48:54;;;;;;;3.35;2.13;;;;;;;12.16;93.56;100156.53;5081696;28;20032;-66
2021/10/30 02:51:20;;;;;;;2.80;1.75;;;;;;;12.09;94.25;100143.00;5082654;28;20036;-66
2021/10/30 02:53:46;;;;;;;4.18;1.80;;;;;;;12.08;93.67;100150.31;5083773;28;20037;-66
2021/10/30 02:56:11;;;;;;;2.70;1.25;;;;;;;12.05;94.35;100134.13;5080511;28;20048;-65
2021/10/30 02:58:39;;;;;;;4.35;1.77;;;;;;;12.03;94.12;100141.81;5082715;28;20021;-65
2021/10/30 03:01:06;;;;;;;3.22;1.83;;;;;;;12.05;93.89;100139.50;5073968;28;20577;-66
2021/10/30 03:03:32;;;;;;;3.38;1.75;;;;;;;11.99;94.23;100141.78;5066827;28;20039;-66
2021/10/30 03:05:57;;;;;;;3.83;1.83;;;;;;;11.96;94.59;100147.97;5077175;28;20384;-66
2021/10/30 03:08:23;;;;;;;6.18;1.80;;;;;;;11.97;94.13;100148.72;5069652;28;20040;-66
2021/10/30 03:10:48;;;;;;;2.90;1.50;;;;;;;11.92;94.51;100146.38;5078039;28;20024;-66
2021/10/30 03:13:14;;;;;;;4.72;1.90;;;;;;;11.86;94.95;100148.66;5057995;28;20088;-66
2021/10/30 03:15:39;;;;;;;2.95;1.55;;;;;;;11.84;94.36;100136.69;5066915;28;20415;-66
2021/10/30 03:18:05;;;;;;;3.75;2.00;;;;;;;11.86;94.92;100137.09;5089481;28;20035;-66
2021/10/30 03:20:31;;;;;;;3.15;1.48;;;;;;;11.84;94.76;100134.78;5074180;28;20021;-66
2021/10/30 03:22:58;;;;;;;2.20;1.42;;;;;;;11.83;94.49;100130.50;5076028;28;20086;-65
2021/10/30 03:25:23;;;;;;;2.60;1.58;;;;;;;11.79;94.57;100129.72;5074216;28;20029;-66
2021/10/30 03:27:49;;;;;;;2.85;1.60;;;;;;;11.77;95.20;100129.31;5078627;28;20036;-65
2021/10/30 03:30:14;;;;;;;3.80;2.10;;;;;;;11.76;95.17;100133.94;5073888;28;20045;-66
2021/10/30 03:32:40;;;;;;;3.03;1.40;;;;;;;11.76;95.30;100138.56;5073759;28;20043;-65
2021/10/30 03:35:07;;;;;;;4.03;1.60;;;;;;;11.75;95.08;100121.59;5082405;28;20057;-66
2021/10/30 03:37:34;;;;;;;3.95;1.70;;;;;;;11.77;95.08;100124.69;5064366;28;20028;-65
2021/10/30 03:40:00;;;;;;;5.05;1.88;;;;;;;11.78;95.00;100125.47;5083086;28;20055;-66
2021/10/30 03:42:26;;;;;;;3.40;1.52;;;;;;;11.81;94.85;100124.72;5083206;28;20508;-66
2021/10/30 03:44:52;;;;;;;2.55;1.77;;;;;;;11.78;95.30;100136.25;5081285;28;20041;-66
2021/10/30 03:47:17;;;;;;;1.95;1.58;;;;;;;11.76;95.20;100127.78;5079354;28;20402;-65
2021/10/30 03:49:43;;;;;;;2.80;1.42;;;;;;;11.76;94.95;100122.38;5078003;28;20143;-66
2021/10/30 03:52:09;;;;;;;4.05;2.00;;;;;;;11.75;94.82;100131.59;5072139;28;20053;-65
2021/10/30 03:54:35;;;;;;;2.65;1.92;;;;;;;11.69;95.38;100117.69;5069541;28;20060;-65
2021/10/30 03:57:00;;;;;;;4.53;1.80;;;;;;;11.72;95.10;100119.66;5077900;28;20052;-66
2021/10/30 03:59:25;;;;;;;2.90;1.70;;;;;;;11.70;94.99;100121.19;5081051;28;20025;-66
2021/10/30 04:01:51;;;;;;;6.50;1.73;;;;;;;11.67;94.99;100124.63;5077048;28;20103;-65
2021/10/30 04:04:17;;;;;;;4.68;1.50;;;;;;;11.65;95.64;100121.50;5071275;28;20036;-65
2021/10/30 04:06:42;;;;;;;3.22;1.83;;;;;;;11.60;95.29;100122.63;5079244;28;20052;-66
2021/10/30 04:09:08;;;;;;;3.47;1.85;;;;;;;11.61;95.74;100136.88;5068993;28;20447;-66
2021/10/30 04:11:34;;;;;;;2.78;1.75;;;;;;;11.56;95.36;100150.69;5110813;22;20059;-69
2021/10/30 04:14:00;;;;;;;3.10;1.67;;;;;;;11.57;95.45;100147.66;5094486;28;20044;-69
2021/10/30 04:16:25;;;;;;;4.82;2.03;;;;;;;11.63;95.23;100153.47;5095431;28;20034;-69
2021/10/30 04:18:51;;;;;;;3.22;1.67;;;;;;;11.65;95.01;100138.47;5094882;28;20477;-68
2021/10/30 04:21:16;;;;;;;2.78;1.50;;;;;;;11.66;94.77;100147.34;5092151;28;20490;-69
2021/10/30 04:23:42;;;;;;;3.92;1.60;;;;;;;11.58;95.27;100137.63;5094139;28;20042;-69
2021/10/30 04:26:08;;;;;;;3.67;1.70;;;;;;;11.54;95.41;100132.19;5102694;28;20442;-68
2021/10/30 04:28:33;;;;;;;3.08;1.60;;;;;;;11.55;95.69;100119.50;5097443;28;20062;-66
2021/10/30 04:31:04;;;;;;;6.78;2.40;;;;;;;11.57;95.34;100122.59;5092121;28;20074;-66
2021/10/30 04:33:30;;;;;;;5.30;2.10;;;;;;;11.52;95.65;100128.31;5096374;28;20050;-66
2021/10/30 04:35:55;;;;;;;5.43;2.00;;;;;;;11.57;95.04;100119.91;5100120;28;20284;-66
2021/10/30 04:38:22;;;;;;;4.45;2.30;;;;;;;11.62;94.40;100127.63;5090788;28;20758;-67
2021/10/30 04:40:48;;;;;;;3.70;2.03;;;;;;;11.57;95.25;100130.69;5101582;28;20039;-66
2021/10/30 04:43:14;;;;;;;2.63;1.67;;;;;;;11.50;94.87;100133.31;5105837;28;20036;-66
2021/10/30 04:45:41;;;;;;;5.35;2.13;;;;;;;11.54;94.67;100132.19;5083825;28;20039;-66
2021/10/30 04:48:07;;;;;;;5.90;2.13;;;;;;;11.51;94.83;100137.56;5091945;28;20066;-66
2021/10/30 04:50:33;;;;;;;2.83;1.70;;;;;;;11.51;94.63;100145.66;5091926;28;20485;-66
2021/10/30 04:52:58;;;;;;;4.78;2.28;;;;;;;11.47;94.65;100131.38;5092384;28;20046;-66
2021/10/30 04:55:24;;;;;;;3.60;2.05;;;;;;;11.41;94.59;100132.88;5084839;28;20119;-67
2021/10/30 04:57:49;;;;;;;6.70;2.30;;;;;;;11.41;94.99;100138.25;5089443;28;20020;-67
2021/10/30 05:00:15;;;;;;;6.97;1.85;;;;;;;11.43;94.22;100127.88;5083211;28;20072;-66
2021/10/30 05:02:41;;;;;;;3.15;1.58;;;;;;;11.37;94.48;100129.34;5088927;28;20055;-66
2021/10/30 05:05:07;;;;;;;3.22;2.00;;;;;;;11.40;94.47;100125.94;5088990;28;20035;-67
2021/10/30 05:07:33;;;;;;;5.95;2.22;;;;;;;11.42;94.26;100137.88;5087046;28;20042;-67
2021/10/30 05:09:58;;;;;;;4.22;2.00;;;;;;;11.35;94.40;100139.75;5089437;28;20145;-67
2021/10/30 05:12:24;;;;;;;2.80;1.80;;;;;;;11.36;94.11;100141.31;5096641;27;20031;-67
2021/10/30 05:14:49;;;;;;;5.20;2.42;;;;;;;11.42;94.05;100126.34;5111736;27;20042;-67
2021/10/30 05:17:15;;;;;;;4.63;2.05;;;;;;;11.34;94.16;100122.03;5105433;27;20032;-67
2021/10/30 05:19:40;;;;;;;4.60;2.75;;;;;;;11.37;93.94;100105.88;5111110;27;20081;-67
2021/10/30 05:22:06;;;;;;;6.18;2.45;;;;;;;11.30;94.52;100095.06;5112910;28;20100;-68
2021/10/30 05:24:31;;;;;;;5.57;2.67;;;;;;;11.33;93.82;100097.00;5103732;27;20511;-67
2021/10/30 05:26:57;;;;;;;5.78;2.28;;;;;;;11.29;94.15;100106.19;5120990;27;20058;-67
2021/10/30 05:29:22;;;;;;;8.88;2.53;;;;;;;11.33;94.02;100113.16;5118290;27;20027;-67
2021/10/30 05:31:48;;;;;;;5.95;2.25;;;;;;;11.33;94.00;100109.69;5124772;27;20035;-67
2021/10/30 05:34:13;;;;;;;6.15;2.45;;;;;;;11.32;94.37;100122.41;5111163;27;20103;-67
2021/10/30 05:37:05;;;;;;;4.72;2.08;;;;;;;11.30;94.23;100124.69;5087265;27;20051;-67
2021/10/30 05:39:40;;;;;;;3.55;2.10;;;;;;;11.32;94.13;100130.50;5089961;27;20554;-67
2021/10/30 05:42:09;;;;;;;3.88;2.15;;;;;;;11.34;93.96;100138.22;5108055;27;20172;-67
2021/10/30 05:44:34;;;;;;;5.40;2.45;;;;;;;11.39;93.30;100143.25;5114184;27;20589;-67
2021/10/30 05:47:00;;;;;;;3.58;2.08;;;;;;;11.33;93.52;100142.81;5104032;27;20114;-67
2021/10/30 05:49:26;;;;;;;5.13;2.45;;;;;;;11.27;94.16;100132.72;5104596;27;20063;-67
2021/10/30 05:51:52;;;;;;;5.40;2.47;;;;;;;11.25;94.52;100133.13;5110874;27;20051;-67
2021/10/30 05:54:18;;;;;;;5.00;2.45;;;;;;;11.16;94.72;100126.47;5116109;27;20127;-67
2021/10/30 05:56:43;;;;;;;4.97;2.38;;;;;;;11.27;94.71;100125.44;5108195;28;20023;-67
2021/10/30 05:59:08;;;;;;;6.00;2.42;;;;;;;11.33;93.76;100131.25;5105926;28;20031;-68
2021/10/30 06:01:34;;;;;;;4.70;2.42;;;;;;;11.28;93.88;100131.59;5108592;27;20118;-68
2021/10/30 06:04:00;;;;;;;4.63;2.42;;;;;;;11.22;94.67;100136.56;5122854;27;20065;-68
2021/10/30 06:06:25;;;;;;;4.03;1.77;;;;;;;11.21;94.25;100134.22;5105203;28;20455;-68
2021/10/30 06:08:51;;;;;;;4.50;2.38;;;;;;;11.24;95.13;100126.19;5110938;28;20815;-67
2021/10/30 06:11:16;;;;;;;4.72;2.28;;;;;;;11.16;94.80;100118.41;5110138;28;20023;-68
2021/10/30 06:13:42;;;;;;;3.75;2.55;;;;;;;11.23;94.53;100131.94;5117645;28;20028;-67
2021/10/30 06:16:08;;;;;;;4.85;2.60;;;;;;;11.29;94.32;100142.00;5107575;28;20055;-68
2021/10/30 06:18:33;;;;;;;5.55;2.65;;;;;;;11.32;93.81;100135.09;5113243;28;20028;-68
2021/10/30 06:20:59;;;;;;;6.55;2.55;;;;;;;11.27;94.13;100149.69;5107095;28;20032;-67
2021/10/30 06:23:24;;;;;;;5.18;2.60;;;;;;;11.30;94.25;100132.00;5106906;28;20031;-68
2021/10/30 06:25:50;;;;;;;6.00;2.65;;;;;;;11.29;94.51;100127.75;5115105;28;20508;-68
2021/10/30 06:28:16;;;;;;;4.25;2.20;;;;;;;11.34;93.90;100122.03;5112819;28;20039;-67
2021/10/30 06:30:42;;;;;;;4.55;2.30;;;;;;;11.39;93.54;100122.47;5081824;28;20032;-68
2021/10/30 06:33:07;;;;;;;5.82;2.90;;;;;;;11.38;93.71;100125.53;5113761;28;20067;-68
2021/10/30 06:35:33;;;;;;;4.63;2.45;;;;;;;11.43;93.52;100122.47;5091226;28;20036;-68
2021/10/30 06:37:58;;;;;;;4.40;2.22;;;;;;;11.43;94.21;100103.59;5111599;28;20482;-68
2021/10/30 06:40:24;;;;;;;3.17;1.92;;;;;;;11.52;93.52;100096.75;5095615;28;20099;-69
2021/10/30 06:42:50;;;;;;;3.65;2.30;;;;;;;11.51;94.03;100105.22;5106047;28;20036;-68
2021/10/30 06:45:15;;;;;;;6.95;3.10;;;;;;;11.60;93.57;100102.97;5108755;28;20128;-68
2021/10/30 06:47:41;;;;;;;3.30;2.03;;;;;;;11.61;93.31;100097.19;5101895;28;20031;-68
2021/10/30 06:50:08;;;;;;;4.85;2.03;;;;;;;11.67;92.79;100101.13;5109859;28;20066;-67
2021/10/30 06:52:38;;;;;;;4.15;2.03;;;;;;;11.74;92.47;100100.41;5094182;28;20591;-67
2021/10/30 06:55:09;;;;;;;6.22;2.60;;;;;;;11.78;91.96;100106.59;5081616;28;20119;-67
2021/10/30 06:57:35;;;;;;;5.35;2.42;;;;;;;11.73;92.88;100109.63;5102195;28;20676;-68
2021/10/30 07:00:01;;;;;;;4.05;2.03;;;;;;;11.75;92.71;100104.63;5105612;28;20130;-69
2021/10/30 07:02:27;;;;;;;5.28;2.45;;;;;;;11.89;92.27;100109.34;5107079;28;20419;-67
2021/10/30 07:04:54;;;;;;;6.32;2.38;;;;;;;11.92;92.16;100111.31;5103053;28;20137;-68
2021/10/30 07:07:19;;;;;;;5.13;2.42;;;;;;;11.92;92.36;100111.31;5110480;28;20081;-67
2021/10/30 07:09:45;;;;;;;4.70;2.08;;;;;;;12.00;91.13;100100.16;5109724;28;20451;-68
2021/10/30 07:12:10;;;;;;;6.55;2.75;;;;;;;12.00;90.68;100097.44;5100984;27;20043;-69
2021/10/30 07:14:36;;;;;;;5.50;2.60;;;;;;;12.07;89.82;100097.50;5110904;27;20118;-68
2021/10/30 07:17:02;;;;;;;5.72;2.30;;;;;;;12.05;90.30;100089.00;5109259;27;20110;-67
2021/10/30 07:19:28;;;;;;;3.47;2.38;;;;;;;12.05;90.75;100093.63;5107797;27;20035;-69
2021/10/30 07:21:53;;;;;;;6.68;2.60;;;;;;;12.07;89.67;100096.72;5106423;27;20028;-68
2021/10/30 07:24:19;;;;;;;4.03;1.90;;;;;;;12.05;89.75;100086.31;5115532;27;20095;-67
2021/10/30 07:26:45;;;;;;;6.85;2.60;;;;;;;12.10;89.41;100085.94;5115582;27;20035;-68
2021/10/30 07:29:10;;;;;;;5.55;2.45;;;;;;;12.16;89.24;100087.13;5112763;27;20114;-68
2021/10/30 07:31:36;;;;;;;6.13;2.58;;;;;;;12.13;90.18;100071.72;5101181;27;20103;-68
2021/10/30 07:34:02;;;;;;;3.10;2.10;;;;;;;12.20;89.70;100071.72;5106678;27;20028;-69
2021/10/30 07:36:27;;;;;;;8.93;2.38;;;;;;;12.24;89.59;100071.75;5115831;27;20031;-68
2021/10/30 07:38:53;;;;;;;5.47;2.53;;;;;;;12.22;90.56;100074.81;5112214;27;20126;-68
2021/10/30 07:41:19;;;;;;;3.75;2.22;;;;;;;12.28;89.84;100067.13;5113021;27;20038;-68
2021/10/30 07:43:44;;;;;;;4.03;2.15;;;;;;;12.35;89.92;100073.31;5119070;27;20031;-68
2021/10/30 07:46:10;;;;;;;3.88;2.25;;;;;;;12.37;89.75;100073.72;5119292;27;20033;-69
2021/10/30 07:48:38;;;;;;;3.45;1.95;;;;;;;12.38;89.80;100072.56;5121403;27;20027;-67
2021/10/30 07:51:03;;;;;;;3.58;2.20;;;;;;;12.44;89.95;100073.75;5107364;27;20439;-68
2021/10/30 07:53:29;;;;;;;4.60;1.98;;;;;;;12.50;89.09;100074.91;5119359;27;20114;-68
2021/10/30 07:55:54;;;;;;;3.88;2.17;;;;;;;12.47;89.58;100073.00;5096986;28;20063;-68
2021/10/30 07:58:20;;;;;;;3.97;1.92;;;;;;;12.47;90.11;100067.59;5112030;28;20408;-68
2021/10/30 08:00:46;;;;;;;5.00;2.00;;;;;;;12.50;90.49;100064.09;5104371;28;20027;-67
2021/10/30 08:03:12;;;;;;;4.07;2.08;;;;;;;12.58;90.41;100071.06;5089475;28;20027;-67
2021/10/30 08:05:38;;;;;;;4.95;2.15;;;;;;;12.60;90.40;100074.16;5105228;27;20827;-68
2021/10/30 08:08:03;;;;;;;2.47;1.75;;;;;;;12.77;90.24;100063.78;5111264;27;20043;-68
2021/10/30 08:10:31;;;;;;;2.85;1.90;;;;;;;12.90;89.34;100059.56;5110525;27;20031;-68
2021/10/30 08:12:57;;;;;;;3.42;1.92;;;;;;;13.02;89.07;100061.91;5107241;27;20447;-67
2021/10/30 08:15:23;;;;;;;4.85;1.88;;;;;;;13.16;86.87;100061.94;5112168;27;20081;-67
2021/10/30 08:17:52;;;;;;;3.75;2.08;;;;;;;13.24;86.08;100055.38;5104405;27;20023;-67
2021/10/30 08:20:18;;;;;;;4.97;2.25;;;;;;;13.29;85.09;100053.06;5106017;27;20051;-67
2021/10/30 08:22:45;;;;;;;3.78;2.00;;;;;;;13.33;84.49;100053.81;5114897;27;20039;-68
2021/10/30 08:25:10;;;;;;;3.15;1.80;;;;;;;13.41;84.68;100065.41;5116017;27;20385;-67
2021/10/30 08:27:36;;;;;;;2.70;1.73;;;;;;;13.49;83.68;100061.53;5116112;27;20051;-67
2021/10/30 08:30:04;;;;;;;2.38;1.40;;;;;;;13.58;83.32;100056.50;5107337;27;20126;-67
2021/10/30 08:32:29;;;;;;;3.78;1.75;;;;;;;13.68;82.88;100055.72;5097785;28;20036;-67
2021/10/30 08:34:55;;;;;;;3.78;1.52;;;;;;;13.82;81.94;100054.91;5088242;28;20101;-67
2021/10/30 08:37:21;;;;;;;5.15;1.83;;;;;;;13.87;82.80;100057.97;5118777;27;20444;-67
2021/10/30 08:39:47;;;;;;;2.75;2.10;;;;;;;13.99;82.67;100070.31;5113975;27;20066;-67
2021/10/30 08:42:12;;;;;;;4.68;1.23;;;;;;;14.14;82.30;100074.50;5109170;27;20456;-67
2021/10/30 08:44:41;;;;;;;2.95;1.30;;;;;;;14.28;80.63;100067.16;5100847;27;20110;-67
2021/10/30 08:47:08;;;;;;;3.38;1.88;;;;;;;14.38;80.57;100077.13;5106379;27;20035;-67
2021/10/30 08:49:37;;;;;;;6.47;2.25;;;;;;;14.52;79.98;100070.13;5105767;27;20100;-66
2021/10/30 08:52:04;;;;;;;3.35;1.63;;;;;;;14.51;79.74;100074.78;5100649;28;20036;-66
2021/10/30 08:54:30;;;;;;;3.58;1.85;;;;;;;14.52;79.54;100070.13;5107418;28;20028;-67
2021/10/30 08:56:55;;;;;;;4.25;1.90;;;;;;;14.50;78.42;100070.50;5104829;27;20088;-67
2021/10/30 08:59:43;;;;;;;5.82;1.60;;;;;;;14.43;78.04;100079.47;5107038;28;20024;-67
2021/10/30 09:02:30;;;;;;;5.70;1.63;;;;;;;14.41;77.78;100078.31;5104202;28;20121;-67
2021/10/30 09:05:07;;;;;;;2.33;1.80;;;;;;;14.43;77.53;100065.91;5110015;27;20047;-67
2021/10/30 09:07:37;;;;;;;3.05;1.50;;;;;;;14.50;78.61;100064.34;5104283;28;20036;-67
2021/10/30 09:10:16;;;;;;;3.30;1.80;;;;;;;14.58;77.82;100076.66;5104509;28;20028;-67
2021/10/30 09:12:58;;;;;;;5.85;2.08;;;;;;;14.59;78.20;100070.09;5112856;27;20040;-67
2021/10/30 09:15:46;;;;;;;3.30;1.77;;;;;;;14.58;78.79;100071.22;5124030;27;20378;-67
2021/10/30 09:18:35;;;;;;;3.55;2.20;;;;;;;14.61;79.10;100067.75;5109861;27;20031;-67
2021/10/30 09:21:14;;;;;;;3.65;1.85;;;;;;;14.61;79.35;100065.81;5112589;27;20119;-67
2021/10/30 09:23:45;;;;;;;3.40;2.05;;;;;;;14.62;79.06;100070.06;5090192;28;20081;-67
2021/10/30 09:26:18;;;;;;;4.03;2.00;;;;;;;14.65;79.44;100071.22;5120001;27;20042;-67
2021/10/30 09:28:54;;;;;;;2.40;1.70;;;;;;;14.64;79.17;100064.22;5108465;27;20032;-67
2021/10/30 09:31:22;;;;;;;4.82;2.35;;;;;;;14.66;79.72;100070.03;5115196;27;20035;-67
2021/10/30 09:33:57;;;;;;;2.10;1.42;;;;;;;14.77;79.10;100060.66;5115154;27;20059;-67
2021/10/30 09:36:29;;;;;;;3.40;1.90;;;;;;;14.78;78.67;100066.88;5115579;27;20493;-67
2021/10/30 09:38:57;;;;;;;2.63;1.58;;;;;;;14.84;78.89;100068.00;5109832;27;20044;-67
2021/10/30 09:41:44;;;;;;;2.95;1.67;;;;;;;14.99;78.66;100064.00;5109560;27;20020;-67
2021/10/30 09:44:17;;;;;;;4.50;1.73;;;;;;;14.97;78.64;100060.91;5113440;27;20123;-66
2021/10/30 09:46:45;;;;;;;3.88;1.95;;;;;;;15.01;78.53;100050.81;5110746;28;20028;-67
2021/10/30 09:49:13;;;;;;;3.15;1.92;;;;;;;14.98;77.97;100046.97;5108926;28;20035;-66
2021/10/30 09:51:39;;;;;;;4.47;2.00;;;;;;;14.96;78.08;100045.84;5111118;27;20039;-67
2021/10/30 09:54:08;;;;;;;3.80;1.95;;;;;;;14.97;78.50;100041.94;5112149;28;20024;-67
2021/10/30 09:56:48;;;;;;;4.00;2.13;;;;;;;14.92;78.63;100050.50;5108136;28;20654;-67
2021/10/30 09:59:17;;;;;;;3.35;1.73;;;;;;;14.87;79.28;100038.13;5105572;28;20027;-66
2021/10/30 10:01:46;;;;;;;4.40;1.70;;;;;;;14.88;79.68;100036.97;5105216;28;20035;-66
2021/10/30 10:04:14;;;;;;;9.13;2.23;;;;;;;14.91;80.20;100022.63;5107311;28;20051;-66
2021/10/30 10:06:45;;;;;;;3.83;1.90;;;;;;;14.96;79.41;100022.19;5110574;28;20455;-67
2021/10/30 10:09:11;;;;;;;4.70;2.57;;;;;;;15.06;79.05;100012.44;5111616;28;20027;-66
2021/10/30 10:11:42;;;;;;;4.00;2.75;;;;;;;15.03;80.05;100008.59;5103561;28;20024;-67
2021/10/30 10:14:10;;;;;;;5.95;1.90;;;;;;;15.05;79.63;100016.31;5087098;28;20117;-66
2021/10/30 10:16:35;;;;;;;5.05;1.92;;;;;;;15.11;79.10;100012.78;5099650;28;20043;-66
2021/10/30 10:19:01;;;;;;;2.60;1.60;;;;;;;15.03;80.51;100007.81;5106603;28;20038;-66
2021/10/30 10:21:32;;;;;;;3.53;2.10;;;;;;;15.08;81.24;100001.94;5105192;28;20028;-66
2021/10/30 10:24:17;;;;;;;;;;;;;;;15.00;81.86;100009.38;5075858;28;20040;-67
2021/10/30 10:26:45;;;;;;;4.10;2.13;;;;;;;15.20;81.77;100006.88;5112572;28;19938;-66
2021/10/30 10:29:11;;;;;;;3.58;1.88;;;;;;;15.35;81.78;99998.19;5080404;28;20454;-66
2021/10/30 10:31:48;;;;;;;4.05;2.40;;;;;;;15.47;81.49;99996.94;5101243;28;20041;-66
2021/10/30 10:34:17;;;;;;;3.00;1.95;;;;;;;15.62;80.51;99989.44;5110243;28;20032;-66
2021/10/30 10:36:45;;;;;;;7.38;3.08;;;;;;;15.67;80.32;99987.06;5111857;28;20039;-66
2021/10/30 10:39:16;;;;;;;4.10;2.28;;;;;;;15.77;79.96;99980.72;5109555;28;20038;-66
2021/10/30 10:41:44;;;;;;;3.33;1.98;;;;;;;15.77;80.16;99982.66;5108077;28;20575;-66
2021/10/30 10:44:10;;;;;;;4.88;2.00;;;;;;;15.76;79.68;99975.69;5108208;28;20035;-67
2021/10/30 10:46:40;;;;;;;4.47;1.95;;;;;;;15.77;79.58;99979.97;5111197;27;20519;-67
2021/10/30 10:49:21;;;;;;;4.95;2.42;;;;;;;15.83;79.29;99962.78;5108998;28;20068;-67
2021/10/30 10:52:08;;;;;;;5.07;2.13;;;;;;;15.79;79.73;99961.31;5105838;28;20150;-67
2021/10/30 10:54:52;;;;;;;4.53;2.47;;;;;;;15.81;79.76;99945.38;5114054;27;20023;-67
2021/10/30 10:57:34;;;;;;;5.55;2.58;;;;;;;15.79;80.13;99940.38;5110781;27;20503;-67
2021/10/30 11:00:07;;;;;;;4.50;2.35;;;;;;;15.83;80.18;99932.91;5109580;27;20031;-67
2021/10/30 11:02:41;;;;;;;4.05;2.50;;;;;;;15.90;79.61;99929.34;5100748;28;20042;-67
2021/10/30 11:05:06;;;;;;;4.93;2.42;;;;;;;15.87;80.45;99919.31;5111615;27;20028;-67
2021/10/30 11:07:35;;;;;;;7.50;2.45;;;;;;;15.91;80.56;99923.50;5109601;27;20072;-67
2021/10/30 11:10:04;;;;;;;3.38;1.70;;;;;;;15.96;80.70;99914.16;5102155;28;20027;-67
2021/10/30 11:12:29;;;;;;;3.45;2.10;;;;;;;15.95;81.50;99909.91;5110702;27;20028;-67
2021/10/30 11:15:14;;;;;;;4.47;2.15;;;;;;;15.95;81.55;99909.91;5107551;28;20027;-67
2021/10/30 11:17:51;;;;;;;3.50;1.95;;;;;;;15.96;81.53;99897.84;5109502;28;20435;-66
2021/10/30 11:20:18;;;;;;;5.53;2.15;;;;;;;16.00;80.82;99891.19;5108084;27;20708;-67
2021/10/30 11:23:00;;;;;;;7.13;2.50;;;;;;;16.00;80.66;99879.56;5110673;27;20038;-67
2021/10/30 11:25:28;;;;;;;5.10;2.20;;;;;;;16.00;80.52;99872.19;5111778;27;20093;-67
2021/10/30 11:27:55;;;;;;;5.10;2.47;;;;;;;16.00;80.49;99863.25;5112418;27;20031;-67